Skip Navigation Links Skip Navigation Links

Current Weather

San Francisco International, San Francisco

For information only: do not use for flight planning or navigation.
Latest weather
Observation time Thursday, June 21, 2018 1:56 PM PDT
Local time Thursday, June 21, 2018 2:53 PM PDT
Flight conditions Visual Meteorological Conditions
Winds
Wind direction West-Northwest (300°)
Wind speed 20 mph
Visibility 10 mi.
Sky condition
Ceiling unlimited
Cloud layer few clouds 1,400 ft.
Temperature 68°F
Dewpoint 50°F
Altimeter 30.00 in.Hg
Pressure change last 3 hours0.03 in.Hg
Pressure falling more quickly
Derived measurements
Relative humidity 53%
Density altitude 683 ft.
Sea-level pressure 30.00 in.Hg
Remarks
Automated weather observing station with precipitation discriminator.
METAR KSFO 212056Z 30017KT 10SM FEW014 20/10 A3000 RMK AO2 SLP160 T02000100 58010

Settings

Location code

InnerDrive.Weather 4.0.6615.0 Release CLR 4.0.30319.42000
Copyright ©2018 Inner Drive Technology. All rights reserved. Portions Copyright ©1986-2018 David Braverman.

Find weather

Site navigation


Skip Navigation Links

Place info

Page info

PayPal - The safer, easier way to pay online!

Return home.

Copyright ©2018 Inner Drive Technology. Purveyors of fine, hand-crafted computer software. Page printed 2018-06-21T21:53:49 UTC.